This is the latest recevied weather packets stored in our database for station/object KI5RKU-09. If no packets are shown the sender has not sent any weather packets the latest 10 day(s).
| Time | Temp. | Humidity | Pressure | Rain* | Wind** | Luminosity | Snow |
|---|---|---|---|---|---|---|---|
| 1777126228 | 22.78° C | 89% | 1008.6 hPa | 0 mm | - | 62 W/m² | - |
| 1777125645 | 22.22° C | 89% | 1008.6 hPa | 0 mm | - | 47 W/m² | - |
| 1777124427 | 21.11° C | 89% | 1008.6 hPa | 0 mm | - | 28 W/m² | - |
| 1777118727 | 18.33° C | 89% | 1007.9 hPa | 0 mm | - | 0 W/m² | - |
| 1777118440 | 18.33° C | 89% | 1007.9 hPa | 0 mm | - | 0 W/m² | - |
| 1777117827 | 18.33° C | 89% | 1008 hPa | 0 mm | - | 0 W/m² | - |
| 1777117543 | 18.33° C | 89% | 1007.9 hPa | 0 mm | - | 0 W/m² | - |
| 1777117227 | 18.33° C | 89% | 1007.9 hPa | 0 mm | - | 0 W/m² | - |
| 1777116932 | 18.33° C | 89% | 1007.9 hPa | 0 mm | - | 0 W/m² | - |
| 1777116329 | 18.33° C | 89% | 1007.8 hPa | 0 mm | - | 0 W/m² | - |
| 1777116030 | 18.33° C | 89% | 1007.8 hPa | 0 mm | - | 0 W/m² | - |
| 1777115426 | 17.78° C | 89% | 1007.8 hPa | 0 mm | - | 0 W/m² | - |
| 1777114841 | 17.78° C | 88% | 1007.8 hPa | 0 mm | - | 0 W/m² | - |
| 1777113329 | 18.33° C | 88% | 1007.7 hPa | 0 mm | - | 0 W/m² | - |
| 1777112427 | 18.33° C | 88% | 1007.3 hPa | 0 mm | - | 0 W/m² | - |
| 1777112142 | 18.89° C | 88% | 1007.2 hPa | 0 mm | - | 0 W/m² | - |
| 1777110927 | 18.89° C | 88% | 1007.1 hPa | 0 mm | - | 0 W/m² | - |
| 1777110627 | 18.89° C | 88% | 1007.1 hPa | 0 mm | - | 0 W/m² | - |
| 1777107652 | 18.89° C | 87% | 1007 hPa | 0 mm | - | 0 W/m² | - |
| 1777106127 | 19.44° C | 87% | 1007 hPa | 0 mm | - | 0 W/m² | - |
| 1777104047 | 19.44° C | 87% | 1007.1 hPa | 0 mm | - | 0 W/m² | - |
| 1777103728 | 19.44° C | 87% | 1007.1 hPa | 0 mm | - | 0 W/m² | - |
| 1777102827 | 19.44° C | 86% | 1007.3 hPa | 0 mm | - | 0 W/m² | - |
| 1777101927 | 19.44° C | 86% | 1007.6 hPa | 0 mm | - | 0 W/m² | - |
| 1777101627 | 19.44° C | 86% | 1007.6 hPa | 0 mm | - | 0 W/m² | - |
* Rain latest hour (hover to see other rain measurements)
** Current wind speed in m/s (hover to see current wind gust speed)